sensor_id;sensor_type;location;lat;lon;timestamp;pressure;altitude;pressure_sealevel;temperature;humidity
37848;BME280;23688;33.130;-117.188;2023-03-15T00:02:24;99593.69;;;17.25;95.26
37848;BME280;23688;33.130;-117.188;2023-03-15T00:04:50;99606.00;;;17.30;95.90
37848;BME280;23688;33.130;-117.188;2023-03-15T00:07:19;99623.50;;;17.30;95.11
37848;BME280;23688;33.130;-117.188;2023-03-15T00:09:53;99610.22;;;17.21;97.30
37848;BME280;23688;33.130;-117.188;2023-03-15T00:12:20;99614.53;;;17.16;98.54
37848;BME280;23688;33.130;-117.188;2023-03-15T00:14:48;99626.91;;;17.24;97.73
37848;BME280;23688;33.130;-117.188;2023-03-15T00:17:15;99603.94;;;17.09;95.46
37848;BME280;23688;33.130;-117.188;2023-03-15T00:19:41;99622.31;;;17.11;93.99
37848;BME280;23688;33.130;-117.188;2023-03-15T00:22:08;99619.59;;;17.06;93.78
37848;BME280;23688;33.130;-117.188;2023-03-15T00:24:34;99616.06;;;17.04;94.75
37848;BME280;23688;33.130;-117.188;2023-03-15T00:27:00;99605.16;;;16.80;93.94
37848;BME280;23688;33.130;-117.188;2023-03-15T00:29:27;99621.00;;;16.86;95.60
37848;BME280;23688;33.130;-117.188;2023-03-15T00:31:53;99613.19;;;16.89;97.08
37848;BME280;23688;33.130;-117.188;2023-03-15T00:34:19;99610.59;;;16.90;96.87
37848;BME280;23688;33.130;-117.188;2023-03-15T00:36:49;99615.81;;;16.89;96.69
37848;BME280;23688;33.130;-117.188;2023-03-15T00:39:21;99607.84;;;16.84;97.20
37848;BME280;23688;33.130;-117.188;2023-03-15T00:41:50;99609.72;;;16.90;97.55
37848;BME280;23688;33.130;-117.188;2023-03-15T00:44:22;99608.06;;;16.97;97.70
37848;BME280;23688;33.130;-117.188;2023-03-15T00:46:49;99613.38;;;17.00;97.41
37848;BME280;23688;33.130;-117.188;2023-03-15T00:49:15;99602.78;;;16.94;96.71
37848;BME280;23688;33.130;-117.188;2023-03-15T00:51:42;99565.72;;;16.77;95.61
37848;BME280;23688;33.130;-117.188;2023-03-15T00:54:09;99601.91;;;16.95;96.54
37848;BME280;23688;33.130;-117.188;2023-03-15T00:56:39;99620.44;;;17.02;95.78
37848;BME280;23688;33.130;-117.188;2023-03-15T00:59:06;99599.28;;;16.93;94.01
37848;BME280;23688;33.130;-117.188;2023-03-15T01:01:33;99616.84;;;16.99;94.63
37848;BME280;23688;33.130;-117.188;2023-03-15T01:03:59;99601.84;;;16.90;95.93
37848;BME280;23688;33.130;-117.188;2023-03-15T01:06:28;99601.91;;;16.93;96.69
37848;BME280;23688;33.130;-117.188;2023-03-15T01:08:54;99599.31;;;16.96;96.88
37848;BME280;23688;33.130;-117.188;2023-03-15T01:11:24;99602.78;;;16.94;97.02
37848;BME280;23688;33.130;-117.188;2023-03-15T01:13:52;99605.44;;;16.95;95.81
37848;BME280;23688;33.130;-117.188;2023-03-15T01:16:19;99595.69;;;16.89;95.34
37848;BME280;23688;33.130;-117.188;2023-03-15T01:18:47;99593.78;;;16.79;94.50
37848;BME280;23688;33.130;-117.188;2023-03-15T01:21:14;99607.75;;;16.80;94.18
37848;BME280;23688;33.130;-117.188;2023-03-15T01:23:43;99604.97;;;16.71;95.30
37848;BME280;23688;33.130;-117.188;2023-03-15T01:26:11;99611.03;;;16.68;95.82
37848;BME280;23688;33.130;-117.188;2023-03-15T01:28:38;99617.03;;;16.61;95.75
37848;BME280;23688;33.130;-117.188;2023-03-15T01:31:05;99612.53;;;16.55;95.69
37848;BME280;23688;33.130;-117.188;2023-03-15T01:33:31;99592.19;;;16.43;94.65
37848;BME280;23688;33.130;-117.188;2023-03-15T01:36:05;99608.19;;;16.57;94.96
37848;BME280;23688;33.130;-117.188;2023-03-15T01:38:32;99607.38;;;16.58;94.86
37848;BME280;23688;33.130;-117.188;2023-03-15T01:40:59;99593.34;;;16.56;95.86
37848;BME280;23688;33.130;-117.188;2023-03-15T01:43:27;99590.63;;;16.53;95.67
37848;BME280;23688;33.130;-117.188;2023-03-15T01:49:04;99594.09;;;16.51;96.54
37848;BME280;23688;33.130;-117.188;2023-03-15T01:54:18;99586.06;;;16.41;97.38
37848;BME280;23688;33.130;-117.188;2023-03-15T01:56:50;99598.13;;;16.33;97.29
37848;BME280;23688;33.130;-117.188;2023-03-15T01:59:35;99598.13;;;16.32;96.62
37848;BME280;23688;33.130;-117.188;2023-03-15T02:02:03;99586.72;;;16.30;96.46
37848;BME280;23688;33.130;-117.188;2023-03-15T02:04:35;99598.03;;;16.27;96.03
37848;BME280;23688;33.130;-117.188;2023-03-15T02:07:04;99622.47;;;16.27;96.64
37848;BME280;23688;33.130;-117.188;2023-03-15T02:10:05;99629.50;;;16.30;97.58
37848;BME280;23688;33.130;-117.188;2023-03-15T02:12:35;99630.75;;;16.05;98.86
37848;BME280;23688;33.130;-117.188;2023-03-15T02:15:05;99632.34;;;15.98;98.92
37848;BME280;23688;33.130;-117.188;2023-03-15T02:17:36;99619.44;;;16.08;99.30
37848;BME280;23688;33.130;-117.188;2023-03-15T02:23:21;99626.19;;;15.96;99.01
37848;BME280;23688;33.130;-117.188;2023-03-15T02:25:58;99635.47;;;15.82;99.62
37848;BME280;23688;33.130;-117.188;2023-03-15T02:28:29;99644.19;;;15.81;99.93
37848;BME280;23688;33.130;-117.188;2023-03-15T02:30:57;99641.28;;;15.70;100.00
37848;BME280;23688;33.130;-117.188;2023-03-15T02:35:55;99625.78;;;15.41;100.00
37848;BME280;23688;33.130;-117.188;2023-03-15T02:38:21;99627.53;;;15.43;100.00
37848;BME280;23688;33.130;-117.188;2023-03-15T02:40:50;99642.66;;;15.54;100.00
37848;BME280;23688;33.130;-117.188;2023-03-15T02:43:22;99634.56;;;15.44;100.00
37848;BME280;23688;33.130;-117.188;2023-03-15T02:45:50;99652.94;;;15.47;100.00
37848;BME280;23688;33.130;-117.188;2023-03-15T02:48:17;99640.63;;;15.43;100.00
37848;BME280;23688;33.130;-117.188;2023-03-15T02:50:45;99621.16;;;15.31;100.00
37848;BME280;23688;33.130;-117.188;2023-03-15T02:53:12;99614.84;;;15.22;100.00
37848;BME280;23688;33.130;-117.188;2023-03-15T02:55:38;99623.59;;;15.24;100.00
37848;BME280;23688;33.130;-117.188;2023-03-15T02:58:05;99616.34;;;15.12;100.00
37848;BME280;23688;33.130;-117.188;2023-03-15T03:00:31;99627.69;;;15.12;100.00
37848;BME280;23688;33.130;-117.188;2023-03-15T03:02:58;99622.16;;;15.02;100.00
37848;BME280;23688;33.130;-117.188;2023-03-15T03:05:25;99616.81;;;14.97;100.00
37848;BME280;23688;33.130;-117.188;2023-03-15T03:07:51;99614.13;;;14.92;100.00
37848;BME280;23688;33.130;-117.188;2023-03-15T03:10:19;99609.72;;;14.91;100.00
37848;BME280;23688;33.130;-117.188;2023-03-15T03:12:46;99615.88;;;14.93;100.00
37848;BME280;23688;33.130;-117.188;2023-03-15T03:15:12;99619.09;;;14.83;100.00
37848;BME280;23688;33.130;-117.188;2023-03-15T03:17:38;99619.09;;;14.51;100.00
37848;BME280;23688;33.130;-117.188;2023-03-15T03:20:07;99625.69;;;14.39;100.00
37848;BME280;23688;33.130;-117.188;2023-03-15T03:22:35;99637.72;;;14.33;100.00
37848;BME280;23688;33.130;-117.188;2023-03-15T03:25:02;99629.81;;;14.30;100.00
37848;BME280;23688;33.130;-117.188;2023-03-15T03:27:29;99625.38;;;14.28;100.00
37848;BME280;23688;33.130;-117.188;2023-03-15T03:29:55;99620.00;;;14.22;100.00
37848;BME280;23688;33.130;-117.188;2023-03-15T03:32:21;99634.06;;;14.27;100.00
37848;BME280;23688;33.130;-117.188;2023-03-15T03:34:48;99631.06;;;14.13;100.00
37848;BME280;23688;33.130;-117.188;2023-03-15T03:37:18;99639.97;;;14.20;100.00
37848;BME280;23688;33.130;-117.188;2023-03-15T03:39:45;99638.97;;;14.16;100.00
37848;BME280;23688;33.130;-117.188;2023-03-15T03:42:11;99645.00;;;14.13;100.00
37848;BME280;23688;33.130;-117.188;2023-03-15T03:44:40;99634.31;;;14.06;100.00
37848;BME280;23688;33.130;-117.188;2023-03-15T03:47:07;99636.72;;;13.98;100.00
37848;BME280;23688;33.130;-117.188;2023-03-15T03:49:33;99639.38;;;14.00;100.00
37848;BME280;23688;33.130;-117.188;2023-03-15T03:51:59;99632.63;;;13.78;100.00
37848;BME280;23688;33.130;-117.188;2023-03-15T03:54:27;99653.59;;;13.81;100.00
37848;BME280;23688;33.130;-117.188;2023-03-15T03:56:54;99646.78;;;13.86;100.00
37848;BME280;23688;33.130;-117.188;2023-03-15T03:59:20;99645.19;;;13.91;100.00
37848;BME280;23688;33.130;-117.188;2023-03-15T04:01:46;99652.28;;;13.95;100.00
37848;BME280;23688;33.130;-117.188;2023-03-15T04:04:13;99641.00;;;13.96;100.00
37848;BME280;23688;33.130;-117.188;2023-03-15T04:06:40;99642.75;;;13.97;100.00
37848;BME280;23688;33.130;-117.188;2023-03-15T04:09:12;99636.78;;;14.00;100.00
37848;BME280;23688;33.130;-117.188;2023-03-15T04:11:40;99635.06;;;14.02;100.00
37848;BME280;23688;33.130;-117.188;2023-03-15T04:14:08;99638.59;;;14.02;100.00
37848;BME280;23688;33.130;-117.188;2023-03-15T04:16:35;99632.44;;;14.00;100.00
37848;BME280;23688;33.130;-117.188;2023-03-15T04:19:03;99634.16;;;14.00;100.00
37848;BME280;23688;33.130;-117.188;2023-03-15T04:21:29;99636.00;;;14.04;100.00
37848;BME280;23688;33.130;-117.188;2023-03-15T04:23:58;99625.19;;;13.91;100.00
37848;BME280;23688;33.130;-117.188;2023-03-15T04:26:25;99642.75;;;13.97;100.00
37848;BME280;23688;33.130;-117.188;2023-03-15T04:28:55;99642.81;;;13.99;100.00
37848;BME280;23688;33.130;-117.188;2023-03-15T04:31:22;99642.53;;;13.89;100.00
37848;BME280;23688;33.130;-117.188;2023-03-15T04:33:55;99637.09;;;13.82;100.00
37848;BME280;23688;33.130;-117.188;2023-03-15T04:36:22;99652.94;;;13.88;100.00
37848;BME280;23688;33.130;-117.188;2023-03-15T04:38:49;99652.00;;;13.86;100.00
37848;BME280;23688;33.130;-117.188;2023-03-15T04:41:16;99657.56;;;13.68;100.00
37848;BME280;23688;33.130;-117.188;2023-03-15T04:43:43;99657.44;;;13.65;100.00
37848;BME280;23688;33.130;-117.188;2023-03-15T04:46:10;99668.75;;;13.65;100.00
37848;BME280;23688;33.130;-117.188;2023-03-15T04:48:36;99652.81;;;13.56;100.00
37848;BME280;23688;33.130;-117.188;2023-03-15T04:51:03;99673.09;;;13.65;100.00
37848;BME280;23688;33.130;-117.188;2023-03-15T04:53:29;99669.66;;;13.66;100.00
37848;BME280;23688;33.130;-117.188;2023-03-15T04:55:56;99671.50;;;13.70;100.00
37848;BME280;23688;33.130;-117.188;2023-03-15T04:58:22;99659.22;;;13.66;100.00
37848;BME280;23688;33.130;-117.188;2023-03-15T05:00:48;99680.47;;;13.78;100.00
37848;BME280;23688;33.130;-117.188;2023-03-15T05:03:15;99683.25;;;13.83;100.00
37848;BME280;23688;33.130;-117.188;2023-03-15T05:05:41;99684.16;;;13.85;100.00
37848;BME280;23688;33.130;-117.188;2023-03-15T05:08:09;99682.47;;;13.87;100.00
37848;BME280;23688;33.130;-117.188;2023-03-15T05:10:35;99672.69;;;13.80;100.00
37848;BME280;23688;33.130;-117.188;2023-03-15T05:13:02;99689.50;;;13.89;100.00
37848;BME280;23688;33.130;-117.188;2023-03-15T05:15:28;99673.72;;;13.85;100.00
37848;BME280;23688;33.130;-117.188;2023-03-15T05:17:54;99684.41;;;13.93;100.00
37848;BME280;23688;33.130;-117.188;2023-03-15T05:20:21;99674.00;;;13.94;100.00
37848;BME280;23688;33.130;-117.188;2023-03-15T05:22:50;99664.44;;;13.95;100.00
37848;BME280;23688;33.130;-117.188;2023-03-15T05:25:19;99662.63;;;13.92;100.00
37848;BME280;23688;33.130;-117.188;2023-03-15T05:27:46;99666.88;;;13.88;100.00
37848;BME280;23688;33.130;-117.188;2023-03-15T05:30:13;99662.34;;;13.83;100.00
37848;BME280;23688;33.130;-117.188;2023-03-15T05:32:41;99660.63;;;13.83;100.00
37848;BME280;23688;33.130;-117.188;2023-03-15T05:35:11;99665.00;;;13.84;100.00
37848;BME280;23688;33.130;-117.188;2023-03-15T05:37:37;99677.38;;;13.90;100.00
37848;BME280;23688;33.130;-117.188;2023-03-15T05:40:04;99661.34;;;13.78;100.00
37848;BME280;23688;33.130;-117.188;2023-03-15T05:42:34;99664.91;;;13.81;100.00
37848;BME280;23688;33.130;-117.188;2023-03-15T05:45:00;99683.41;;;13.89;100.00
37848;BME280;23688;33.130;-117.188;2023-03-15T05:47:27;99690.16;;;13.82;100.00
37848;BME280;23688;33.130;-117.188;2023-03-15T05:49:53;99681.50;;;13.83;100.00
37848;BME280;23688;33.130;-117.188;2023-03-15T05:52:19;99685.00;;;13.84;100.00
37848;BME280;23688;33.130;-117.188;2023-03-15T05:54:46;99693.75;;;13.86;100.00
37848;BME280;23688;33.130;-117.188;2023-03-15T05:57:12;99689.47;;;13.88;100.00
37848;BME280;23688;33.130;-117.188;2023-03-15T05:59:38;99685.00;;;13.84;100.00
37848;BME280;23688;33.130;-117.188;2023-03-15T06:02:05;99696.94;;;13.76;100.00
37848;BME280;23688;33.130;-117.188;2023-03-15T06:04:31;99688.25;;;13.77;100.00
37848;BME280;23688;33.130;-117.188;2023-03-15T06:06:57;99696.88;;;13.74;100.00
37848;BME280;23688;33.130;-117.188;2023-03-15T06:09:23;99702.00;;;13.71;100.00
37848;BME280;23688;33.130;-117.188;2023-03-15T06:11:50;99696.63;;;13.66;100.00
37848;BME280;23688;33.130;-117.188;2023-03-15T06:14:17;99695.00;;;13.70;100.00
37848;BME280;23688;33.130;-117.188;2023-03-15T06:16:44;99701.84;;;13.66;100.00
37848;BME280;23688;33.130;-117.188;2023-03-15T06:19:10;99705.19;;;13.62;100.00
37848;BME280;23688;33.130;-117.188;2023-03-15T06:21:36;99721.72;;;13.63;100.00
37848;BME280;23688;33.130;-117.188;2023-03-15T06:24:03;99704.41;;;13.65;100.00
37848;BME280;23688;33.130;-117.188;2023-03-15T06:26:29;99704.44;;;13.66;100.00
37848;BME280;23688;33.130;-117.188;2023-03-15T06:28:55;99721.88;;;13.67;100.00
37848;BME280;23688;33.130;-117.188;2023-03-15T06:31:22;99734.91;;;13.67;100.00
37848;BME280;23688;33.130;-117.188;2023-03-15T06:33:48;99716.56;;;13.64;100.00
37848;BME280;23688;33.130;-117.188;2023-03-15T06:36:14;99720.75;;;13.59;100.00
37848;BME280;23688;33.130;-117.188;2023-03-15T06:38:41;99702.47;;;13.59;100.00
37848;BME280;23688;33.130;-117.188;2023-03-15T06:41:07;99689.50;;;13.61;100.00
37848;BME280;23688;33.130;-117.188;2023-03-15T06:43:34;99680.97;;;13.66;100.00
37848;BME280;23688;33.130;-117.188;2023-03-15T06:46:00;99657.25;;;13.59;100.00
37848;BME280;23688;33.130;-117.188;2023-03-15T06:48:28;99666.69;;;13.55;100.00
37848;BME280;23688;33.130;-117.188;2023-03-15T06:50:54;99657.91;;;13.53;100.00
37848;BME280;23688;33.130;-117.188;2023-03-15T06:53:20;99669.13;;;13.49;100.00
37848;BME280;23688;33.130;-117.188;2023-03-15T06:55:50;99676.72;;;13.43;100.00
37848;BME280;23688;33.130;-117.188;2023-03-15T06:58:16;99673.41;;;13.47;100.00
37848;BME280;23688;33.130;-117.188;2023-03-15T07:00:43;99675.22;;;13.49;100.00
37848;BME280;23688;33.130;-117.188;2023-03-15T07:03:09;99680.28;;;13.45;100.00
37848;BME280;23688;33.130;-117.188;2023-03-15T07:05:36;99684.38;;;13.37;100.00
37848;BME280;23688;33.130;-117.188;2023-03-15T07:08:02;99695.88;;;13.43;100.00
37848;BME280;23688;33.130;-117.188;2023-03-15T07:10:29;99689.91;;;13.47;100.00
37848;BME280;23688;33.130;-117.188;2023-03-15T07:12:56;99674.97;;;13.42;100.00
37848;BME280;23688;33.130;-117.188;2023-03-15T07:15:25;99685.50;;;13.45;100.00
37848;BME280;23688;33.130;-117.188;2023-03-15T07:17:51;99695.84;;;13.42;100.00
37848;BME280;23688;33.130;-117.188;2023-03-15T07:20:18;99689.47;;;13.34;100.00
37848;BME280;23688;33.130;-117.188;2023-03-15T07:22:44;99700.00;;;13.37;100.00
37848;BME280;23688;33.130;-117.188;2023-03-15T07:25:10;99683.19;;;13.27;100.00
37848;BME280;23688;33.130;-117.188;2023-03-15T07:27:37;99680.81;;;13.35;100.00
37848;BME280;23688;33.130;-117.188;2023-03-15T07:30:04;99659.00;;;13.33;100.00
37848;BME280;23688;33.130;-117.188;2023-03-15T07:32:32;99663.28;;;13.31;100.00
37848;BME280;23688;33.130;-117.188;2023-03-15T07:34:59;99663.78;;;13.20;100.00
37848;BME280;23688;33.130;-117.188;2023-03-15T07:37:27;99654.22;;;13.19;100.00
37848;BME280;23688;33.130;-117.188;2023-03-15T07:39:53;99655.81;;;13.16;100.00
37848;BME280;23688;33.130;-117.188;2023-03-15T07:42:20;99665.50;;;13.20;100.00
37848;BME280;23688;33.130;-117.188;2023-03-15T07:44:48;99662.91;;;13.20;100.00
37848;BME280;23688;33.130;-117.188;2023-03-15T07:47:15;99641.03;;;13.15;100.00
37848;BME280;23688;33.130;-117.188;2023-03-15T07:49:41;99639.84;;;13.06;100.00
37848;BME280;23688;33.130;-117.188;2023-03-15T07:52:08;99639.69;;;13.02;100.00
37848;BME280;23688;33.130;-117.188;2023-03-15T07:54:34;99638.06;;;12.78;100.00
37848;BME280;23688;33.130;-117.188;2023-03-15T07:57:00;99628.88;;;12.64;100.00
37848;BME280;23688;33.130;-117.188;2023-03-15T07:59:27;99614.22;;;12.43;100.00
37848;BME280;23688;33.130;-117.188;2023-03-15T08:01:53;99629.84;;;12.43;100.00
37848;BME280;23688;33.130;-117.188;2023-03-15T08:04:19;99621.78;;;12.36;100.00
37848;BME280;23688;33.130;-117.188;2023-03-15T08:06:46;99626.16;;;12.37;100.00
37848;BME280;23688;33.130;-117.188;2023-03-15T08:09:13;99622.88;;;12.42;100.00
37848;BME280;23688;33.130;-117.188;2023-03-15T08:11:39;99625.56;;;12.44;100.00
37848;BME280;23688;33.130;-117.188;2023-03-15T08:14:06;99630.94;;;12.49;100.00
37848;BME280;23688;33.130;-117.188;2023-03-15T08:16:32;99619.22;;;12.37;100.00
37848;BME280;23688;33.130;-117.188;2023-03-15T08:19:00;99616.56;;;12.36;100.00
37848;BME280;23688;33.130;-117.188;2023-03-15T08:21:26;99616.81;;;12.42;100.00
37848;BME280;23688;33.130;-117.188;2023-03-15T08:23:52;99599.09;;;12.32;100.00
37848;BME280;23688;33.130;-117.188;2023-03-15T08:26:19;99603.81;;;12.43;100.00
37848;BME280;23688;33.130;-117.188;2023-03-15T08:28:45;99617.16;;;12.53;100.00
37848;BME280;23688;33.130;-117.188;2023-03-15T08:31:11;99609.97;;;12.46;100.00
37848;BME280;23688;33.130;-117.188;2023-03-15T08:33:40;99600.59;;;12.51;100.00
37848;BME280;23688;33.130;-117.188;2023-03-15T08:36:07;99615.78;;;12.62;100.00
37848;BME280;23688;33.130;-117.188;2023-03-15T08:38:34;99629.19;;;12.73;100.00
37848;BME280;23688;33.130;-117.188;2023-03-15T08:41:00;99629.06;;;12.70;100.00
37848;BME280;23688;33.130;-117.188;2023-03-15T08:43:28;99598.72;;;12.71;100.00
37848;BME280;23688;33.130;-117.188;2023-03-15T08:45:54;99630.66;;;12.91;100.00
37848;BME280;23688;33.130;-117.188;2023-03-15T08:48:20;99613.50;;;12.97;100.00
37848;BME280;23688;33.130;-117.188;2023-03-15T08:50:47;99619.78;;;13.04;100.00
37848;BME280;23688;33.130;-117.188;2023-03-15T08:53:13;99615.59;;;13.07;100.00
37848;BME280;23688;33.130;-117.188;2023-03-15T08:55:40;99608.63;;;13.08;100.00
37848;BME280;23688;33.130;-117.188;2023-03-15T08:58:06;99609.38;;;13.04;100.00
37848;BME280;23688;33.130;-117.188;2023-03-15T09:00:32;99610.91;;;12.97;100.00
37848;BME280;23688;33.130;-117.188;2023-03-15T09:02:59;99615.59;;;13.09;100.00
37848;BME280;23688;33.130;-117.188;2023-03-15T09:05:26;99596.16;;;12.98;100.00
37848;BME280;23688;33.130;-117.188;2023-03-15T09:07:55;99607.50;;;13.00;100.00
37848;BME280;23688;33.130;-117.188;2023-03-15T09:10:21;99621.44;;;13.02;100.00
37848;BME280;23688;33.130;-117.188;2023-03-15T09:12:49;99619.91;;;13.07;100.00
37848;BME280;23688;33.130;-117.188;2023-03-15T09:15:16;99612.91;;;13.06;100.00
37848;BME280;23688;33.130;-117.188;2023-03-15T09:17:44;99606.50;;;12.96;100.00
37848;BME280;23688;33.130;-117.188;2023-03-15T09:20:12;99586.97;;;12.83;100.00
37848;BME280;23688;33.130;-117.188;2023-03-15T09:22:48;99553.09;;;12.58;100.00
37848;BME280;23688;33.130;-117.188;2023-03-15T09:25:15;99543.72;;;12.63;100.00
37848;BME280;23688;33.130;-117.188;2023-03-15T09:27:43;99557.22;;;12.77;100.00
37848;BME280;23688;33.130;-117.188;2023-03-15T09:30:09;99552.25;;;12.84;100.00
37848;BME280;23688;33.130;-117.188;2023-03-15T09:32:36;99536.13;;;12.69;100.00
37848;BME280;23688;33.130;-117.188;2023-03-15T09:35:03;99532.75;;;12.72;100.00
37848;BME280;23688;33.130;-117.188;2023-03-15T09:37:30;99553.00;;;12.80;100.00
37848;BME280;23688;33.130;-117.188;2023-03-15T09:39:57;99558.41;;;12.87;100.00
37848;BME280;23688;33.130;-117.188;2023-03-15T09:45:26;99556.59;;;13.11;100.00
37848;BME280;23688;33.130;-117.188;2023-03-15T09:48:05;99563.94;;;12.96;100.00
37848;BME280;23688;33.130;-117.188;2023-03-15T09:50:40;99547.97;;;12.85;100.00
37848;BME280;23688;33.130;-117.188;2023-03-15T09:53:19;99546.00;;;12.79;100.00
37848;BME280;23688;33.130;-117.188;2023-03-15T09:55:50;99552.31;;;12.86;100.00
37848;BME280;23688;33.130;-117.188;2023-03-15T09:58:21;99552.31;;;12.86;100.00
37848;BME280;23688;33.130;-117.188;2023-03-15T10:01:01;99531.47;;;12.86;100.00
37848;BME280;23688;33.130;-117.188;2023-03-15T10:03:50;99517.03;;;12.96;100.00
37848;BME280;23688;33.130;-117.188;2023-03-15T10:06:23;99502.31;;;12.98;100.00
37848;BME280;23688;33.130;-117.188;2023-03-15T10:08:57;99519.88;;;13.03;100.00
37848;BME280;23688;33.130;-117.188;2023-03-15T10:14:26;99489.72;;;13.12;100.00
37848;BME280;23688;33.130;-117.188;2023-03-15T10:17:02;99489.75;;;13.13;100.00
37848;BME280;23688;33.130;-117.188;2023-03-15T10:19:53;99493.47;;;13.20;100.00
37848;BME280;23688;33.130;-117.188;2023-03-15T10:25:18;99469.38;;;13.27;100.00
37848;BME280;23688;33.130;-117.188;2023-03-15T10:28:04;99470.41;;;13.34;100.00
37848;BME280;23688;33.130;-117.188;2023-03-15T10:30:36;99465.41;;;13.40;100.00
37848;BME280;23688;33.130;-117.188;2023-03-15T10:35:32;99458.53;;;13.43;100.00
37848;BME280;23688;33.130;-117.188;2023-03-15T10:37:58;99442.19;;;13.49;100.00
37848;BME280;23688;33.130;-117.188;2023-03-15T10:40:46;99430.19;;;13.54;100.00
37848;BME280;23688;33.130;-117.188;2023-03-15T10:43:23;99431.94;;;13.55;100.00
37848;BME280;23688;33.130;-117.188;2023-03-15T10:46:10;99425.22;;;13.63;100.00
37848;BME280;23688;33.130;-117.188;2023-03-15T10:48:52;99420.00;;;13.63;100.00
37848;BME280;23688;33.130;-117.188;2023-03-15T10:51:28;99396.41;;;13.60;100.00
37848;BME280;23688;33.130;-117.188;2023-03-15T10:53:58;99387.50;;;13.52;100.00
37848;BME280;23688;33.130;-117.188;2023-03-15T10:56:30;99377.16;;;13.55;100.00
37848;BME280;23688;33.130;-117.188;2023-03-15T10:58:58;99386.84;;;13.59;100.00
37848;BME280;23688;33.130;-117.188;2023-03-15T11:01:29;99366.66;;;13.52;100.00
37848;BME280;23688;33.130;-117.188;2023-03-15T11:04:24;99378.09;;;13.57;100.00
37848;BME280;23688;33.130;-117.188;2023-03-15T11:07:03;99356.81;;;13.43;100.00
37848;BME280;23688;33.130;-117.188;2023-03-15T11:09:43;99365.78;;;13.53;100.00
37848;BME280;23688;33.130;-117.188;2023-03-15T11:12:23;99356.16;;;13.51;100.00
37848;BME280;23688;33.130;-117.188;2023-03-15T11:14:55;99358.53;;;13.41;100.00
37848;BME280;23688;33.130;-117.188;2023-03-15T11:17:25;99356.81;;;13.43;100.00
37848;BME280;23688;33.130;-117.188;2023-03-15T11:20:22;99355.03;;;13.41;100.00
37848;BME280;23688;33.130;-117.188;2023-03-15T11:22:52;99348.91;;;13.39;100.00
37848;BME280;23688;33.130;-117.188;2023-03-15T11:25:20;99341.47;;;13.24;100.00
37848;BME280;23688;33.130;-117.188;2023-03-15T11:27:48;99348.28;;;13.19;100.00
37848;BME280;23688;33.130;-117.188;2023-03-15T11:30:23;99344.47;;;13.06;100.00
37848;BME280;23688;33.130;-117.188;2023-03-15T11:32:51;99363.72;;;13.11;100.00
37848;BME280;23688;33.130;-117.188;2023-03-15T11:35:44;99373.69;;;13.24;100.00
37848;BME280;23688;33.130;-117.188;2023-03-15T11:38:30;99366.50;;;13.17;100.00
37848;BME280;23688;33.130;-117.188;2023-03-15T11:41:08;99365.66;;;13.18;100.00
37848;BME280;23688;33.130;-117.188;2023-03-15T11:46:31;99358.56;;;13.13;100.00
37848;BME280;23688;33.130;-117.188;2023-03-15T11:49:18;99329.84;;;13.11;100.00
37848;BME280;23688;33.130;-117.188;2023-03-15T11:51:48;99330.03;;;13.19;100.00
37848;BME280;23688;33.130;-117.188;2023-03-15T11:54:16;99326.94;;;13.31;100.00
37848;BME280;23688;33.130;-117.188;2023-03-15T11:56:48;99338.06;;;13.25;100.00
37848;BME280;23688;33.130;-117.188;2023-03-15T12:01:48;99354.06;;;13.37;100.00
37848;BME280;23688;33.130;-117.188;2023-03-15T12:12:02;99362.13;;;13.16;100.00
37848;BME280;23688;33.130;-117.188;2023-03-15T12:14:34;99375.44;;;13.25;100.00
37848;BME280;23688;33.130;-117.188;2023-03-15T12:28:26;99373.13;;;13.06;100.00
37848;BME280;23688;33.130;-117.188;2023-03-15T12:30:57;99382.47;;;12.99;100.00
37848;BME280;23688;33.130;-117.188;2023-03-15T12:33:27;99397.81;;;13.19;100.00
37848;BME280;23688;33.130;-117.188;2023-03-15T12:36:28;99385.41;;;13.10;100.00
37848;BME280;23688;33.130;-117.188;2023-03-15T12:41:51;99387.84;;;13.04;100.00
37848;BME280;23688;33.130;-117.188;2023-03-15T12:47:09;99374.00;;;13.06;100.00
37848;BME280;23688;33.130;-117.188;2023-03-15T12:49:42;99388.97;;;13.14;100.00
37848;BME280;23688;33.130;-117.188;2023-03-15T12:52:24;99385.94;;;13.27;100.00
37848;BME280;23688;33.130;-117.188;2023-03-15T12:55:31;99376.81;;;13.14;100.00
37848;BME280;23688;33.130;-117.188;2023-03-15T12:57:52;99359.28;;;13.07;100.00
37848;BME280;23688;33.130;-117.188;2023-03-15T13:00:22;99371.38;;;13.05;100.00
37848;BME280;23688;33.130;-117.188;2023-03-15T13:03:03;99381.69;;;13.02;100.00
37848;BME280;23688;33.130;-117.188;2023-03-15T13:08:22;99362.78;;;13.09;100.00
37848;BME280;23688;33.130;-117.188;2023-03-15T13:10:52;99388.03;;;13.10;100.00
37848;BME280;23688;33.130;-117.188;2023-03-15T13:27:20;99370.47;;;13.04;100.00
37848;BME280;23688;33.130;-117.188;2023-03-15T13:29:51;99367.84;;;13.03;100.00
37848;BME280;23688;33.130;-117.188;2023-03-15T13:32:18;99369.41;;;12.98;100.00
37848;BME280;23688;33.130;-117.188;2023-03-15T13:34:47;99362.34;;;12.94;100.00
37848;BME280;23688;33.130;-117.188;2023-03-15T13:37:22;99358.13;;;12.97;100.00
37848;BME280;23688;33.130;-117.188;2023-03-15T13:40:11;99349.16;;;12.88;100.00
37848;BME280;23688;33.130;-117.188;2023-03-15T13:42:41;99345.75;;;12.90;100.00
37848;BME280;23688;33.130;-117.188;2023-03-15T13:47:34;99346.34;;;12.81;100.00